createdAt,value
2023-11-11T00:02:49.540Z,100289.72
2023-11-11T00:07:44.448Z,100302.84
2023-11-11T00:12:40.004Z,100307.38
2023-11-11T00:17:33.099Z,100285.75
2023-11-11T00:22:26.136Z,100274.16
2023-11-11T00:27:19.626Z,100274.94
2023-11-11T00:32:14.356Z,100291.69
2023-11-11T00:37:07.818Z,100283.69
2023-11-11T00:42:03.358Z,100266.03
2023-11-11T00:46:56.420Z,100233.50
2023-11-11T00:51:50.910Z,100212.28
2023-11-11T00:56:43.980Z,100204.03
2023-11-11T01:01:37.055Z,100206.25
2023-11-11T01:06:30.732Z,100198.09
2023-11-11T01:11:27.085Z,100199.31
2023-11-11T01:16:20.330Z,100200.63
2023-11-11T01:21:13.626Z,100197.56
2023-11-11T01:26:10.739Z,100188.56
2023-11-11T01:31:05.591Z,100176.31
2023-11-11T01:36:02.504Z,100187.53
2023-11-11T01:40:55.932Z,100182.00
2023-11-11T01:45:49.170Z,100175.28
2023-11-11T01:50:44.437Z,100176.47
2023-11-11T01:55:37.562Z,100162.00
2023-11-11T02:00:31.430Z,100164.06
2023-11-11T02:05:24.628Z,100153.03
2023-11-11T02:10:19.468Z,100154.00
2023-11-11T02:15:16.368Z,100153.88
2023-11-11T02:20:12.981Z,100153.63
2023-11-11T02:25:08.274Z,100129.97
2023-11-11T02:30:03.308Z,100110.03
2023-11-11T02:34:56.288Z,100106.69
2023-11-11T02:39:49.318Z,100100.50
2023-11-11T02:44:43.756Z,100082.94
2023-11-11T02:49:36.769Z,100099.44
2023-11-11T02:54:29.889Z,100116.31
2023-11-11T02:59:22.931Z,100131.88
2023-11-11T03:04:17.667Z,100131.03
2023-11-11T03:09:11.768Z,100139.28
2023-11-11T03:14:04.906Z,100122.19
2023-11-11T03:18:58.072Z,100106.38
2023-11-11T03:23:52.489Z,100115.16
2023-11-11T03:28:45.447Z,100111.16
2023-11-11T03:33:38.383Z,100095.88
2023-11-11T03:38:31.394Z,100099.44
2023-11-11T03:43:26.760Z,100096.13
2023-11-11T03:48:20.108Z,100094.34
2023-11-11T03:53:13.228Z,100087.47
2023-11-11T03:58:06.228Z,100090.53
2023-11-11T04:03:01.740Z,100089.44
2023-11-11T04:07:55.710Z,100099.50
2023-11-11T04:12:48.755Z,100099.34
2023-11-11T04:17:45.366Z,100093.31
2023-11-11T04:22:40.963Z,100089.38
2023-11-11T04:27:33.972Z,100086.53
2023-11-11T04:32:27.155Z,100104.78
2023-11-11T04:37:20.170Z,100103.31
2023-11-11T04:42:18.907Z,100099.19
2023-11-11T04:47:12.176Z,100096.25
2023-11-11T04:52:06.024Z,100085.94
2023-11-11T04:56:59.924Z,100075.34
2023-11-11T05:01:55.301Z,100080.03
2023-11-11T05:06:48.582Z,100081.50
2023-11-11T05:11:42.230Z,100071.19
2023-11-11T05:16:41.467Z,100053.03
2023-11-11T05:21:36.085Z,100052.19
2023-11-11T05:26:29.667Z,100061.56
2023-11-11T05:31:22.907Z,100057.03
2023-11-11T05:36:16.122Z,100052.63
2023-11-11T05:41:10.623Z,100059.50
2023-11-11T05:46:03.615Z,100058.25
2023-11-11T05:50:56.577Z,100059.75
2023-11-11T05:55:49.635Z,100058.13
2023-11-11T06:00:44.532Z,100054.97
2023-11-11T06:05:37.698Z,100071.47
2023-11-11T06:10:31.033Z,100068.75
2023-11-11T06:15:24.712Z,100063.91
2023-11-11T06:20:20.246Z,100052.75
2023-11-11T06:25:13.303Z,100049.19
2023-11-11T06:30:10.304Z,100047.94
2023-11-11T06:35:04.963Z,100030.91
2023-11-11T06:40:01.016Z,100011.78
2023-11-11T06:44:54.124Z,100005.88
2023-11-11T06:49:47.084Z,100014.66
2023-11-11T06:54:42.687Z,100017.16
2023-11-11T06:59:38.102Z,100038.50
2023-11-11T07:04:31.201Z,100034.25
2023-11-11T07:09:25.576Z,100030.94
2023-11-11T07:14:20.672Z,100043.63
2023-11-11T07:19:15.042Z,100019.88
2023-11-11T07:24:08.167Z,100001.75
2023-11-11T07:29:01.244Z,99998.75
2023-11-11T07:33:56.244Z,100003.09
2023-11-11T07:38:50.819Z,100002.16
2023-11-11T07:43:43.866Z,99977.63
2023-11-11T07:48:36.903Z,99970.50
2023-11-11T07:53:30.116Z,99970.34
2023-11-11T08:03:22.175Z,99957.63
2023-11-11T08:08:17.009Z,99934.38
2023-11-11T08:13:12.138Z,99922.72
2023-11-11T08:18:06.943Z,99920.63
2023-11-11T08:23:00.207Z,99912.44
2023-11-11T08:27:53.376Z,99909.03
2023-11-11T08:32:46.449Z,99904.16
2023-11-11T08:37:41.061Z,99906.72
2023-11-11T08:42:34.257Z,99917.47
2023-11-11T08:47:27.326Z,99933.91
2023-11-11T08:52:20.359Z,99941.00
2023-11-11T08:57:21.136Z,99932.13
2023-11-11T09:08:31.900Z,99921.88
2023-11-11T09:13:26.297Z,99917.44
2023-11-11T09:18:19.973Z,99910.16
2023-11-11T09:23:13.334Z,99890.47
2023-11-11T09:28:08.265Z,99899.78
2023-11-11T09:33:03.395Z,99892.31
2023-11-11T09:37:57.458Z,99883.75
2023-11-11T09:42:50.900Z,99873.34
2023-11-11T09:47:45.485Z,99880.84
2023-11-11T09:52:40.830Z,99898.94
2023-11-11T09:57:34.730Z,99856.03
2023-11-11T10:02:28.409Z,99845.78
2023-11-11T10:07:23.063Z,99801.97
2023-11-11T10:12:17.527Z,99838.22
2023-11-11T10:17:16.573Z,99836.38
2023-11-11T10:22:10.373Z,99823.41
2023-11-11T10:27:04.093Z,99828.06
2023-11-11T10:31:58.515Z,99821.38
2023-11-11T10:36:51.499Z,99815.59
2023-11-11T10:41:45.222Z,99780.84
2023-11-11T10:46:41.113Z,99760.50
2023-11-11T10:51:36.529Z,99756.38
2023-11-11T10:56:29.970Z,99738.00
2023-11-11T11:01:24.052Z,99721.47
2023-11-11T11:06:22.115Z,99728.69
2023-11-11T11:11:21.098Z,99723.59
2023-11-11T11:16:17.641Z,99711.13
2023-11-11T11:21:12.042Z,99698.69
2023-11-11T11:26:05.197Z,99688.88
2023-11-11T11:31:00.690Z,99703.47
2023-11-11T11:35:55.608Z,99706.16
2023-11-11T11:40:50.477Z,99699.00
2023-11-11T11:45:43.493Z,99704.47
2023-11-11T11:50:38.347Z,99705.47
2023-11-11T11:55:39.584Z,99710.13
2023-11-11T12:00:34.471Z,99708.25
2023-11-11T12:05:27.750Z,99706.50
2023-11-11T12:10:22.217Z,99711.59
2023-11-11T12:15:17.195Z,99694.69
2023-11-11T12:20:11.062Z,99700.44
2023-11-11T12:25:05.093Z,99703.94
2023-11-11T12:29:59.517Z,99692.47
2023-11-11T12:34:54.670Z,99697.72
2023-11-11T12:39:51.407Z,99690.97
2023-11-11T12:44:44.590Z,99654.50
2023-11-11T12:49:40.082Z,99699.47
2023-11-11T12:54:34.615Z,99705.88
2023-11-11T12:59:28.322Z,99709.63
2023-11-11T13:04:22.491Z,99714.88
2023-11-11T13:09:20.623Z,99718.28
2023-11-11T13:14:14.069Z,99717.59
2023-11-11T13:19:11.183Z,99739.22
2023-11-11T13:24:08.206Z,99747.38
2023-11-11T13:29:02.889Z,99757.31
2023-11-11T13:33:56.195Z,99744.16
2023-11-11T13:38:49.553Z,99718.69
2023-11-11T13:43:47.127Z,99709.53
2023-11-11T13:48:41.527Z,99689.28
2023-11-11T13:53:34.620Z,99678.47
2023-11-11T13:58:27.551Z,99664.47
2023-11-11T14:03:23.638Z,99660.38
2023-11-11T14:08:19.202Z,99675.06
2023-11-11T14:13:13.611Z,99673.97
2023-11-11T14:18:07.304Z,99695.78
2023-11-11T14:23:01.951Z,99709.38
2023-11-11T14:27:56.732Z,99734.72
2023-11-11T14:32:50.090Z,99708.47
2023-11-11T14:37:43.708Z,99767.72
2023-11-11T14:42:36.664Z,99726.81
2023-11-11T14:47:31.481Z,99720.22
2023-11-11T14:52:26.934Z,99707.19
2023-11-11T14:57:19.871Z,99704.88
2023-11-11T15:02:13.094Z,99717.44
2023-11-11T15:07:07.724Z,99744.84
2023-11-11T15:12:00.673Z,99767.16
2023-11-11T15:16:53.679Z,99805.72
2023-11-11T15:21:50.399Z,99838.09
2023-11-11T15:26:46.293Z,99854.03
2023-11-11T15:31:41.795Z,99869.47
2023-11-11T15:36:37.274Z,99821.72
2023-11-11T15:41:32.825Z,99792.97
2023-11-11T15:46:29.927Z,99738.47
2023-11-11T15:51:24.126Z,99795.75
2023-11-11T15:56:18.551Z,99799.59
2023-11-11T16:01:14.581Z,99792.31
2023-11-11T16:06:11.473Z,99797.28
2023-11-11T16:11:05.763Z,99786.44
2023-11-11T16:16:00.805Z,99795.09
2023-11-11T16:20:53.722Z,99816.44
2023-11-11T16:25:48.025Z,99814.38
2023-11-11T16:30:41.520Z,99820.69
2023-11-11T16:35:34.460Z,99827.16
2023-11-11T16:40:27.451Z,99829.78
2023-11-11T16:45:21.893Z,99825.50
2023-11-11T16:50:16.307Z,99833.22
2023-11-11T16:55:11.911Z,99856.88
2023-11-11T17:00:06.389Z,99860.16
2023-11-11T17:05:00.802Z,99869.66
2023-11-11T17:09:53.905Z,99890.41
2023-11-11T17:14:47.388Z,99895.50
2023-11-11T17:19:40.266Z,99901.69
2023-11-11T17:24:36.830Z,99900.31
2023-11-11T17:29:30.277Z,99910.72
2023-11-11T17:34:23.279Z,99920.47
2023-11-11T17:39:16.306Z,99922.75
2023-11-11T17:44:11.631Z,99923.59
2023-11-11T17:49:04.565Z,99927.44
2023-11-11T17:53:59.132Z,99936.28
2023-11-11T17:58:52.122Z,99934.66
2023-11-11T18:03:46.636Z,99945.97
2023-11-11T18:08:39.741Z,99943.94
2023-11-11T18:13:32.784Z,99962.78
2023-11-11T18:18:25.801Z,99954.78
2023-11-11T18:23:20.112Z,99960.69
2023-11-11T18:28:14.308Z,99978.03
2023-11-11T18:33:07.361Z,99991.09
2023-11-11T18:38:03.107Z,100000.47
2023-11-11T18:42:58.245Z,100004.88
2023-11-11T18:47:51.342Z,100025.78
2023-11-11T18:52:44.394Z,100028.66
2023-11-11T18:57:37.364Z,100024.63
2023-11-11T19:02:31.821Z,100019.84
2023-11-11T19:07:26.001Z,100029.72
2023-11-11T19:12:19.731Z,100045.66
2023-11-11T19:17:12.727Z,100055.03
2023-11-11T19:22:07.222Z,100071.53
2023-11-11T19:27:00.181Z,100093.94
2023-11-11T19:31:53.195Z,100094.66
2023-11-11T19:36:46.159Z,100111.97
2023-11-11T19:41:40.523Z,100122.28
2023-11-11T19:46:34.414Z,100124.06
2023-11-11T19:51:28.233Z,100134.09
2023-11-11T19:56:21.617Z,100142.72
2023-11-11T20:01:16.256Z,100150.47
2023-11-11T20:06:09.731Z,100147.78
2023-11-11T20:11:02.988Z,100148.69
2023-11-11T20:15:56.171Z,100136.16
2023-11-11T20:20:50.523Z,100141.88
2023-11-11T20:25:43.913Z,100141.69
2023-11-11T20:30:39.431Z,100133.66
2023-11-11T20:35:32.642Z,100136.66
2023-11-11T20:40:27.000Z,100146.66
2023-11-11T20:45:20.080Z,100149.16
2023-11-11T20:50:15.275Z,100158.44
2023-11-11T20:55:08.844Z,100176.25
2023-11-11T21:00:06.981Z,100171.41
2023-11-11T21:05:04.342Z,100172.91
2023-11-11T21:09:57.451Z,100179.59
2023-11-11T21:14:50.470Z,100183.63
2023-11-11T21:19:45.264Z,100177.34
2023-11-11T21:24:38.366Z,100186.97
2023-11-11T21:29:31.502Z,100197.41
2023-11-11T21:34:24.458Z,100187.56
2023-11-11T21:39:18.873Z,100202.50
2023-11-11T21:44:14.490Z,100196.91
2023-11-11T21:49:20.270Z,100216.59
2023-11-11T21:54:13.350Z,100219.44
2023-11-11T21:59:08.951Z,100230.06
2023-11-11T22:04:02.613Z,100226.03
2023-11-11T22:08:55.731Z,100235.16
2023-11-11T22:13:49.274Z,100236.69
2023-11-11T22:18:43.885Z,100230.16
2023-11-11T22:23:36.954Z,100226.25
2023-11-11T22:28:29.996Z,100233.44
2023-11-11T22:33:23.081Z,100233.69
2023-11-11T22:38:18.418Z,100238.28
2023-11-11T22:43:11.564Z,100245.41
2023-11-11T22:48:10.139Z,100237.91
2023-11-11T22:53:03.348Z,100240.03
2023-11-11T22:57:57.931Z,100257.63
2023-11-11T23:02:51.047Z,100277.03
2023-11-11T23:07:44.113Z,100285.91
2023-11-11T23:12:37.223Z,100286.22
2023-11-11T23:17:31.753Z,100275.22
2023-11-11T23:22:24.891Z,100271.88
2023-11-11T23:27:17.929Z,100273.16
2023-11-11T23:32:11.139Z,100283.19
2023-11-11T23:37:05.734Z,100284.94
2023-11-11T23:41:58.714Z,100280.69
2023-11-11T23:46:51.777Z,100289.44
2023-11-11T23:51:47.669Z,100294.03
2023-11-11T23:56:42.396Z,100301.31
